KALB

Albany International Airport

Albany, New York, USA
KALB 212328Z 2200/2224 31024G39KT P6SM SCT040 SCT140 FM220500 31017G27KT P6SM SKC FM220900 31007KT P6SM SKC FM221600 VRB03KT P6SM FEW250 FM222200 VRB03KT P6SM BKN110
Issued Valid From Valid To
Jan-21 @ 23:28 UTC
(39 minutes ago)
Jan-22 @ 00:00 UTC
(7 minutes ago)
Jan-23 @ 00:00 UTC
(in 24 hours)
Jan-22 @ 00:00 to Jan-22 @ 05:00
KALB 212328Z 2200/2224 31024G39KT P6SM SCT040 SCT140
Wind Visibility Clouds
310° at 24 knots
 Gusting to 39 knots
Greater than 6 miles
  • Scattered at 4,000' AGL
  • Scattered at 14,000' AGL
From Jan-22 @ 05:00 to Jan-22 @ 09:00
FM220500 31017G27KT P6SM SKC
Wind Visibility Clouds
310° at 17 knots
 Gusting to 27 knots
Greater than 6 miles
  • Clear skies
From Jan-22 @ 09:00 to Jan-22 @ 16:00
FM220900 31007KT P6SM SKC
Wind Visibility Clouds
310° at 7 knots Greater than 6 miles
  • Clear skies
From Jan-22 @ 16:00 to Jan-22 @ 22:00
FM221600 VRB03KT P6SM FEW250
Wind Visibility Clouds
Variable at 3 knots Greater than 6 miles
  • Few at 25,000' AGL
From Jan-22 @ 22:00 to Jan-23 @ 00:00
FM222200 VRB03KT P6SM BKN110
Wind Visibility Clouds
Variable at 3 knots Greater than 6 miles
  • Broken at 11,000' AGL
KALB 212328Z 2200/2224 31024G39KT P6SM SCT040 SCT140 FM220500 31017G27KT P6SM SKC FM220900 31007KT P6SM SKC FM221600 VRB03KT P6SM FEW250 FM222200 VRB03KT P6SM BKN110
Issued Jan-21 @ 23:28 UTC
(39 minutes ago)
Valid From Jan-22 @ 00:00 UTC
(7 minutes ago)
Valid To Jan-23 @ 00:00 UTC
(in 24 hours)
Jan-22 @ 00:00 - Jan-22 @ 05:00
Wind Visibility
310° at 24 knots
 Gusting to 39 knots
Greater than 6 miles
Clouds
  • Scattered at 4,000' AGL
  • Scattered at 14,000' AGL
From Jan-22 @ 05:00 - Jan-22 @ 09:00
Wind Visibility
310° at 17 knots
 Gusting to 27 knots
Greater than 6 miles
Clouds
  • Clear skies
From Jan-22 @ 09:00 - Jan-22 @ 16:00
Wind Visibility
310° at 7 knots Greater than 6 miles
Clouds
  • Clear skies
From Jan-22 @ 16:00 - Jan-22 @ 22:00
Wind Visibility
Variable at 3 knots Greater than 6 miles
Clouds
  • Few at 25,000' AGL
From Jan-22 @ 22:00 - Jan-23 @ 00:00
Wind Visibility
Variable at 3 knots Greater than 6 miles
Clouds
  • Broken at 11,000' AGL